createdAt,value
2022-11-24T00:17:40.261Z,102
2022-11-24T00:47:39.583Z,103
2022-11-24T01:17:42.768Z,98
2022-11-24T01:47:44.876Z,97
2022-11-24T02:17:45.615Z,98
2022-11-24T02:47:42.714Z,100
2022-11-24T03:17:42.677Z,101
2022-11-24T03:47:44.166Z,101
2022-11-24T04:17:47.000Z,100
2022-11-24T04:47:49.058Z,102
2022-11-24T05:17:43.201Z,105
2022-11-24T05:47:49.140Z,104
2022-11-24T06:17:38.134Z,110
2022-11-24T06:47:39.034Z,110
2022-11-24T07:17:33.240Z,113
2022-11-24T07:47:36.631Z,107
2022-11-24T08:17:36.251Z,109
2022-11-24T08:47:33.289Z,105
2022-11-24T09:17:30.572Z,105
2022-11-24T09:47:34.524Z,103
2022-11-24T10:17:37.626Z,108
2022-11-24T10:47:33.687Z,108
2022-11-24T11:17:38.185Z,110
2022-11-24T11:47:36.995Z,109
2022-11-24T12:17:42.170Z,237
2022-11-24T12:47:44.762Z,178
2022-11-24T13:17:43.201Z,172
2022-11-24T13:47:46.124Z,168
2022-11-24T14:17:47.609Z,167
2022-11-24T14:47:43.525Z,167
2022-11-24T15:17:40.907Z,164
2022-11-24T15:47:41.637Z,160
2022-11-24T16:17:36.635Z,158
2022-11-24T16:47:36.287Z,155
2022-11-24T17:17:38.169Z,158
2022-11-24T17:47:42.434Z,277
2022-11-24T18:47:44.943Z,201
2022-11-24T19:17:42.139Z,198
2022-11-24T20:17:42.688Z,190
2022-11-24T20:47:43.670Z,186
2022-11-24T21:17:41.373Z,192
2022-11-24T21:47:39.916Z,180
2022-11-24T22:17:34.965Z,178
2022-11-24T23:17:34.601Z,168
2022-11-24T23:47:36.633Z,170
